Minerva Grace — SVBN7 — position and weather

sailwx.info

Track history (hours):
 
Tides and Currents Weather Stations Pressure Air Temp Water Temp Dewpoint Dewpoint Depression Visibility Wind Speed Wind Dir Waves Ship Positions

Minerva Grace

Last reported at 2014-Oct-16 04:33 UTC. Time now 2014-Nov-01 04:09 UTC.
Position N 36°23' E 022°49'.
Warning: this ship's position is 15 days out of date.

Length 183 m; draft 8 m.

Type: Tanker. MMSI: 241193000.

Date/timePositionNaut miles runAvg speedWind from/ knotsBaromVisibWave heightAir tempDewpointWater temp
2014-Oct-16 04:33N 36°23' E 022°49'2010.0
2014-Oct-16 02:32N 36°15' E 022°26'1010.1
2014-Oct-16 01:33N 36°16' E 022°13'1310.0
2014-Oct-16 00:16N 36°15' E 021°58'1910.0
2014-Oct-15 22:22N 36°14' E 021°34'12 9.7
2014-Oct-15 21:10N 36°13' E 021°20'9 9.6
2014-Oct-15 20:14N 36°12' E 021°09'710.0
2014-Oct-15 19:31N 36°12' E 020°60'25310.0
2014-Oct-14 18:18N 35°54' E 015°48'710.0
2014-Oct-14 17:33N 35°54' E 015°39'1010.0
2014-Oct-14 16:33N 35°53' E 015°26'1010.0
2014-Oct-14 15:33N 35°53' E 015°14'1010.2
2014-Oct-14 14:33N 35°52' E 015°01'6 5.7
2014-Oct-14 13:34N 35°51' E 014°54'0 0.0
2014-Oct-14 12:33N 35°51' E 014°55'0 0.0
2014-Oct-14 11:33N 35°51' E 014°54'0 0.0
2014-Oct-14 10:33N 35°51' E 014°54'0 0.0
2014-Oct-14 09:34N 35°51' E 014°54'0 0.0
2014-Oct-14 08:33N 35°51' E 014°54'0 0.0
2014-Oct-14 07:34N 35°51' E 014°54'0 0.0
2014-Oct-13 06:06N 35°51' E 014°55'0 0.1
2014-Oct-13 05:33N 35°51' E 014°55'0 0.0
2014-Oct-13 04:33N 35°51' E 014°55'0 0.0
2014-Oct-13 03:33N 35°51' E 014°55'0 0.0
2014-Oct-13 02:30N 35°51' E 014°55'0 0.0
2014-Oct-13 01:33N 35°51' E 014°55'0 0.1
2014-Oct-13 00:33N 35°51' E 014°54'0 0.0
2014-Oct-12 23:33N 35°51' E 014°54'0 0.0
2014-Oct-12 22:33N 35°51' E 014°54'0 0.0
2014-Oct-12 21:30N 35°51' E 014°54'0 0.0
2014-Oct-12 20:33N 35°51' E 014°54'0 0.0
2014-Oct-12 19:33N 35°51' E 014°54'0 0.0
2014-Oct-12 18:34N 35°51' E 014°54'0 0.0
2014-Oct-12 17:33N 35°51' E 014°55'0 0.0
2014-Oct-12 16:34N 35°51' E 014°54'1 1.1
2014-Oct-12 15:33N 35°51' E 014°53'1110.6
2014-Oct-12 14:33N 35°48' E 014°41'6 0.2
2014-Oct-11 05:33N 35°50' E 014°33'5 4.6
2014-Oct-11 04:33N 35°48' E 014°39'9 6.8
2014-Oct-11 03:18N 35°52' E 014°48'0 0.0
2014-Oct-11 02:33N 35°52' E 014°48'0 0.0
2014-Oct-11 01:33N 35°52' E 014°48'0 0.0
2014-Oct-11 00:33N 35°52' E 014°48'0 0.0
2014-Oct-10 23:30N 35°52' E 014°48'0 0.0
2014-Oct-10 22:12N 35°52' E 014°48'0 0.0
2014-Oct-10 21:33N 35°52' E 014°48'0 0.0
2014-Oct-10 20:30N 35°52' E 014°48'0 0.0
2014-Oct-10 19:30N 35°52' E 014°48'0 0.0
2014-Oct-10 17:30N 35°52' E 014°48'8 7.0
2014-Oct-10 16:25N 35°55' E 014°57'1513.2
2014-Oct-10 15:17N 36°09' E 015°05'1313.5
2014-Oct-10 14:20N 36°21' E 015°11'10413.3
2014-Oct-10 06:30N 38°03' E 015°34'1311.0
2014-Oct-10 05:22N 38°15' E 015°39'5 6.8
2014-Oct-10 04:33N 38°21' E 015°40'13211.7
2014-Oct-09 17:15N 40°15' E 014°14'1013.9
2014-Oct-09 16:34N 40°23' E 014°07'1212.2
2014-Oct-09 15:34N 40°35' E 014°05'1414.1
2014-Oct-09 14:33N 40°46' E 014°16'5 4.1
2014-Oct-09 13:27N 40°50' E 014°18'0 0.0
2014-Oct-09 12:33N 40°50' E 014°18'0 0.0
2014-Oct-09 11:33N 40°50' E 014°18'0 0.0
2014-Oct-09 10:33N 40°50' E 014°18'0 0.0
2014-Oct-09 09:33N 40°50' E 014°18'0 0.0
2014-Oct-09 08:33N 40°50' E 014°18'0 0.0
2014-Oct-09 05:12N 40°50' E 014°18'0 0.0
2014-Oct-09 04:06N 40°50' E 014°18'0 0.0
2014-Oct-09 03:33N 40°50' E 014°18'0 0.0
2014-Oct-09 02:12N 40°50' E 014°18'0 0.0
2014-Oct-09 01:21N 40°50' E 014°18'0 0.0
2014-Oct-08 15:33N 40°50' E 014°18'0 0.0
2014-Oct-08 14:33N 40°50' E 014°18'1 1.4
2014-Oct-08 13:33N 40°49' E 014°19'1 0.7
2014-Oct-08 12:28N 40°48' E 014°19'0 0.0
2014-Oct-08 11:28N 40°48' E 014°19'0 0.0
2014-Oct-08 10:31N 40°48' E 014°19'0 0.0
2014-Oct-08 06:13N 40°48' E 014°19'0 0.0
2014-Oct-08 05:16N 40°48' E 014°19'0 0.0
2014-Oct-08 03:16N 40°48' E 014°19'0 0.0
2014-Oct-08 02:31N 40°48' E 014°19'0 0.0
2014-Oct-07 23:25N 40°48' E 014°19'25211.0
2014-Oct-07 00:32N 38°42' E 009°36'1413.3
2014-Oct-06 23:32N 38°35' E 009°21'1413.5
2014-Oct-06 22:31N 38°29' E 009°05'1313.5
2014-Oct-06 21:32N 38°22' E 008°51'  
Track history (hours):
 
Tides and Currents Weather Stations Pressure Air Temp Water Temp Dewpoint Dewpoint Depression Visibility Wind Speed Wind Dir Waves Ship Positions

Minerva Grace

Last reported at 2014-Oct-16 04:33 UTC. Time now 2014-Nov-01 04:09 UTC.
Position N 36°23' E 022°49'.
Warning: this ship's position is 15 days out of date.

Length 183 m; draft 8 m.

Type: Tanker. MMSI: 241193000.

Date/timePositionNaut miles runAvg speedWind from/ knotsBaromVisibWave heightAir tempDewpointWater temp
2014-Oct-16 04:33N 36°23' E 022°49'2010.0
2014-Oct-16 02:32N 36°15' E 022°26'1010.1
2014-Oct-16 01:33N 36°16' E 022°13'1310.0
2014-Oct-16 00:16N 36°15' E 021°58'1910.0
2014-Oct-15 22:22N 36°14' E 021°34'12 9.7
2014-Oct-15 21:10N 36°13' E 021°20'9 9.6
2014-Oct-15 20:14N 36°12' E 021°09'710.0
2014-Oct-15 19:31N 36°12' E 020°60'25310.0
2014-Oct-14 18:18N 35°54' E 015°48'710.0
2014-Oct-14 17:33N 35°54' E 015°39'1010.0
2014-Oct-14 16:33N 35°53' E 015°26'1010.0
2014-Oct-14 15:33N 35°53' E 015°14'1010.2
2014-Oct-14 14:33N 35°52' E 015°01'6 5.7
2014-Oct-14 13:34N 35°51' E 014°54'0 0.0
2014-Oct-14 12:33N 35°51' E 014°55'0 0.0
2014-Oct-14 11:33N 35°51' E 014°54'0 0.0
2014-Oct-14 10:33N 35°51' E 014°54'0 0.0
2014-Oct-14 09:34N 35°51' E 014°54'0 0.0
2014-Oct-14 08:33N 35°51' E 014°54'0 0.0
2014-Oct-14 07:34N 35°51' E 014°54'0 0.0
2014-Oct-13 06:06N 35°51' E 014°55'0 0.1
2014-Oct-13 05:33N 35°51' E 014°55'0 0.0
2014-Oct-13 04:33N 35°51' E 014°55'0 0.0
2014-Oct-13 03:33N 35°51' E 014°55'0 0.0
2014-Oct-13 02:30N 35°51' E 014°55'0 0.0
2014-Oct-13 01:33N 35°51' E 014°55'0 0.1
2014-Oct-13 00:33N 35°51' E 014°54'0 0.0
2014-Oct-12 23:33N 35°51' E 014°54'0 0.0
2014-Oct-12 22:33N 35°51' E 014°54'0 0.0
2014-Oct-12 21:30N 35°51' E 014°54'0 0.0
2014-Oct-12 20:33N 35°51' E 014°54'0 0.0
2014-Oct-12 19:33N 35°51' E 014°54'0 0.0
2014-Oct-12 18:34N 35°51' E 014°54'0 0.0
2014-Oct-12 17:33N 35°51' E 014°55'0 0.0
2014-Oct-12 16:34N 35°51' E 014°54'1 1.1
2014-Oct-12 15:33N 35°51' E 014°53'1110.6
2014-Oct-12 14:33N 35°48' E 014°41'6 0.2
2014-Oct-11 05:33N 35°50' E 014°33'5 4.6
2014-Oct-11 04:33N 35°48' E 014°39'9 6.8
2014-Oct-11 03:18N 35°52' E 014°48'0 0.0
2014-Oct-11 02:33N 35°52' E 014°48'0 0.0
2014-Oct-11 01:33N 35°52' E 014°48'0 0.0
2014-Oct-11 00:33N 35°52' E 014°48'0 0.0
2014-Oct-10 23:30N 35°52' E 014°48'0 0.0
2014-Oct-10 22:12N 35°52' E 014°48'0 0.0
2014-Oct-10 21:33N 35°52' E 014°48'0 0.0
2014-Oct-10 20:30N 35°52' E 014°48'0 0.0
2014-Oct-10 19:30N 35°52' E 014°48'0 0.0
2014-Oct-10 17:30N 35°52' E 014°48'8 7.0
2014-Oct-10 16:25N 35°55' E 014°57'1513.2
2014-Oct-10 15:17N 36°09' E 015°05'1313.5
2014-Oct-10 14:20N 36°21' E 015°11'10413.3
2014-Oct-10 06:30N 38°03' E 015°34'1311.0
2014-Oct-10 05:22N 38°15' E 015°39'5 6.8
2014-Oct-10 04:33N 38°21' E 015°40'13211.7
2014-Oct-09 17:15N 40°15' E 014°14'1013.9
2014-Oct-09 16:34N 40°23' E 014°07'1212.2
2014-Oct-09 15:34N 40°35' E 014°05'1414.1
2014-Oct-09 14:33N 40°46' E 014°16'5 4.1
2014-Oct-09 13:27N 40°50' E 014°18'0 0.0
2014-Oct-09 12:33N 40°50' E 014°18'0 0.0
2014-Oct-09 11:33N 40°50' E 014°18'0 0.0
2014-Oct-09 10:33N 40°50' E 014°18'0 0.0
2014-Oct-09 09:33N 40°50' E 014°18'0 0.0
2014-Oct-09 08:33N 40°50' E 014°18'0 0.0
2014-Oct-09 05:12N 40°50' E 014°18'0 0.0
2014-Oct-09 04:06N 40°50' E 014°18'0 0.0
2014-Oct-09 03:33N 40°50' E 014°18'0 0.0
2014-Oct-09 02:12N 40°50' E 014°18'0 0.0
2014-Oct-09 01:21N 40°50' E 014°18'0 0.0
2014-Oct-08 15:33N 40°50' E 014°18'0 0.0
2014-Oct-08 14:33N 40°50' E 014°18'1 1.4
2014-Oct-08 13:33N 40°49' E 014°19'1 0.7
2014-Oct-08 12:28N 40°48' E 014°19'0 0.0
2014-Oct-08 11:28N 40°48' E 014°19'0 0.0
2014-Oct-08 10:31N 40°48' E 014°19'0 0.0
2014-Oct-08 06:13N 40°48' E 014°19'0 0.0
2014-Oct-08 05:16N 40°48' E 014°19'0 0.0
2014-Oct-08 03:16N 40°48' E 014°19'0 0.0
2014-Oct-08 02:31N 40°48' E 014°19'0 0.0
2014-Oct-07 23:25N 40°48' E 014°19'25211.0
2014-Oct-07 00:32N 38°42' E 009°36'1413.3
2014-Oct-06 23:32N 38°35' E 009°21'1413.5
2014-Oct-06 22:31N 38°29' E 009°05'1313.5
2014-Oct-06 21:32N 38°22' E 008°51'  

Dump ship's entire track history